Jump to content

LordNC

Members
  • Posts

    8
  • Joined

  • Last visited

LordNC's Achievements

Newbie

Newbie (1/14)

0

Reputation

  1. KOPF, its at -300 right now KOPF 082353Z 07011KT 10SM FEW025 SCT032 BKN043 24/19 A3030 RMK AO2 SLP261 60000 T02390194 10267 20233 53013
  2. How do I fix this, my cabin alt is showing -500.
  3. How do I fix this, my cabin alt is showing -500.
  4. Do I need to download somthing ? Like I paied for it .
  5. SEC DATE BASE is empty in the fms. not sure how to fix this. Please help
×
×
  • Create New...